Time;durP1;ratioP1;P1;durP2;ratioP2;P2;SDS_P1;SDS_P2;PMS_P1;PMS_P2;Temp;Humidity;BMP_temperature;BMP_pressure;BME280_temperature;BME280_humidity;BME280_pressure;Samples;Min_cycle;Max_cycle;Signal;HPM_P1;HPM_P2
2022/06/16 00:00:14;;;;;;;4.60;2.92;;;20.00;99.90;;;;;;4994030;28;20117;-52
2022/06/16 00:02:45;;;;;;;6.20;3.22;;;20.00;99.90;;;;;;4994329;28;20030;-49
2022/06/16 00:05:12;;;;;;;7.90;2.83;;;20.00;99.90;;;;;;4993149;28;20389;-54
2022/06/16 00:07:40;;;;;;;3.00;2.70;;;20.00;99.90;;;;;;4994538;28;20033;-50
2022/06/16 00:10:07;;;;;;;5.00;3.28;;;19.90;99.90;;;;;;4994155;28;20022;-52
2022/06/16 00:12:33;;;;;;;5.68;3.35;;;19.70;99.90;;;;;;4994648;28;20033;-51
2022/06/16 00:14:59;;;;;;;4.32;2.50;;;19.60;99.90;;;;;;4994414;28;20057;-53
2022/06/16 00:17:25;;;;;;;5.18;2.90;;;19.60;99.90;;;;;;4994333;28;20034;-52
2022/06/16 00:19:51;;;;;;;3.72;2.70;;;19.80;99.90;;;;;;4993191;28;20113;-52
2022/06/16 00:22:17;;;;;;;4.57;2.70;;;19.80;99.90;;;;;;4994055;28;20450;-52
2022/06/16 00:24:42;;;;;;;4.97;2.13;;;19.70;99.90;;;;;;4992603;28;20019;-51
2022/06/16 00:27:08;;;;;;;5.28;2.88;;;19.60;99.90;;;;;;4994049;28;20023;-53
2022/06/16 00:29:34;;;;;;;4.50;2.75;;;19.70;99.90;;;;;;4992474;28;20425;-52
2022/06/16 00:32:00;;;;;;;9.38;3.03;;;19.50;99.90;;;;;;4992662;28;20038;-51
2022/06/16 00:34:26;;;;;;;3.95;2.50;;;19.40;99.90;;;;;;4992645;28;20052;-49
2022/06/16 00:36:52;;;;;;;4.60;2.78;;;19.30;99.90;;;;;;4994187;28;20026;-53
2022/06/16 00:39:18;;;;;;;3.67;2.75;;;19.10;99.90;;;;;;4992673;28;20061;-52
2022/06/16 00:41:44;;;;;;;7.95;3.30;;;19.00;99.90;;;;;;4992476;28;20117;-51
2022/06/16 00:44:17;;;;;;;5.03;3.20;;;18.90;99.90;;;;;;4993279;28;20124;-55
2022/06/16 00:46:43;;;;;;;5.68;2.63;;;18.80;99.90;;;;;;4993863;28;20026;-51
2022/06/16 00:49:12;;;;;;;3.55;2.53;;;18.70;99.90;;;;;;4992474;28;20030;-54
2022/06/16 00:51:43;;;;;;;4.57;2.75;;;18.60;99.90;;;;;;4992961;28;20028;-54
2022/06/16 00:54:08;;;;;;;3.17;2.83;;;18.60;99.90;;;;;;4993034;28;20023;-51
2022/06/16 00:56:35;;;;;;;4.97;3.00;;;18.60;99.90;;;;;;4993406;28;20025;-50
2022/06/16 00:59:04;;;;;;;4.88;3.25;;;18.50;99.90;;;;;;4992398;28;20031;-54
2022/06/16 01:01:30;;;;;;;3.88;2.53;;;18.50;99.90;;;;;;4993816;28;20021;-55
2022/06/16 01:06:43;;;;;;;6.75;2.83;;;18.40;99.90;;;;;;4993871;28;20044;-54
2022/06/16 01:09:16;;;;;;;5.03;2.88;;;18.40;99.90;;;;;;4993595;28;20072;-51
2022/06/16 01:15:05;;;;;;;3.30;2.88;;;18.30;99.90;;;;;;4993457;28;20133;-53
2022/06/16 01:18:11;;;;;;;6.13;2.75;;;18.20;99.90;;;;;;4990613;28;20116;-53
2022/06/16 01:21:01;;;;;;;9.13;2.97;;;18.30;99.90;;;;;;4993432;28;20084;-55
2022/06/16 01:23:40;;;;;;;6.25;2.67;;;18.20;99.90;;;;;;4993500;28;20097;-49
2022/06/16 01:26:31;;;;;;;8.35;2.45;;;18.10;99.90;;;;;;4992192;28;20023;-51
2022/06/16 01:29:09;;;;;;;7.35;3.08;;;18.30;99.90;;;;;;4992679;28;20050;-51
2022/06/16 01:32:06;;;;;;;4.70;2.67;;;18.50;99.90;;;;;;4993334;28;20090;-53
2022/06/16 01:34:46;;;;;;;4.22;2.63;;;18.40;99.90;;;;;;4992045;28;20037;-56
2022/06/16 01:37:26;;;;;;;5.00;2.80;;;18.50;99.90;;;;;;4992805;28;20065;-54
2022/06/16 01:40:03;;;;;;;4.72;2.75;;;18.60;99.90;;;;;;4992106;28;20519;-53
2022/06/16 01:42:37;;;;;;;3.88;2.67;;;18.50;99.90;;;;;;4993634;28;20041;-49
2022/06/16 01:45:18;;;;;;;6.82;2.88;;;18.60;99.90;;;;;;4993271;28;20024;-50
2022/06/16 01:47:49;;;;;;;3.85;2.63;;;18.60;99.90;;;;;;4992521;28;20025;-52
2022/06/16 01:50:21;;;;;;;4.18;2.72;;;18.70;99.90;;;;;;4993461;28;20105;-50
2022/06/16 01:52:57;;;;;;;;;;;18.60;99.90;;;;;;4992262;28;20050;-52
2022/06/16 01:55:30;;;;;;;5.32;2.92;;;18.60;99.90;;;;;;4993672;28;19906;-51
2022/06/16 01:58:07;;;;;;;4.60;2.95;;;18.60;99.90;;;;;;4991963;28;20050;-55
2022/06/16 02:00:34;;;;;;;9.13;2.88;;;18.70;99.90;;;;;;4991788;28;20509;-57
2022/06/16 02:03:07;;;;;;;4.10;2.80;;;18.70;99.90;;;;;;4991678;28;20080;-53
2022/06/16 02:05:44;;;;;;;6.65;3.17;;;18.50;99.90;;;;;;4996891;28;20142;-55
2022/06/16 02:08:17;;;;;;;5.40;2.65;;;18.30;99.90;;;;;;4997061;28;20015;-58
2022/06/16 02:10:46;;;;;;;4.93;2.78;;;18.30;99.90;;;;;;4996131;28;20034;-54
2022/06/16 02:13:16;;;;;;;4.45;3.05;;;18.30;99.90;;;;;;4995256;28;20032;-54
2022/06/16 02:15:52;;;;;;;5.93;2.97;;;18.20;99.90;;;;;;4995356;28;20042;-58
2022/06/16 02:18:23;;;;;;;6.10;2.97;;;18.10;99.90;;;;;;4995429;28;20081;-50
2022/06/16 02:20:53;;;;;;;3.45;2.80;;;18.00;99.90;;;;;;4996715;28;20065;-55
2022/06/16 02:23:20;;;;;;;8.30;3.28;;;17.90;99.90;;;;;;4995088;28;20117;-53
2022/06/16 02:25:48;;;;;;;4.20;2.78;;;17.90;99.90;;;;;;4995139;28;20026;-52
2022/06/16 02:28:15;;;;;;;6.97;2.58;;;17.90;99.90;;;;;;4996128;28;20022;-57
2022/06/16 02:30:55;;;;;;;3.92;2.90;;;17.80;99.90;;;;;;4995899;28;20030;-55
2022/06/16 02:33:45;;;;;;;4.18;2.80;;;17.80;99.90;;;;;;4996311;28;20046;-52
2022/06/16 02:36:35;;;;;;;3.20;2.53;;;17.80;99.90;;;;;;4995408;28;20117;-51
2022/06/16 02:39:09;;;;;;;5.20;3.30;;;17.70;99.90;;;;;;4995725;28;20309;-52
2022/06/16 02:41:47;;;;;;;9.77;3.10;;;17.70;99.90;;;;;;4995297;28;20026;-51
2022/06/16 02:44:42;;;;;;;6.22;2.58;;;17.60;99.90;;;;;;4996374;28;20129;-52
2022/06/16 02:47:48;;;;;;;9.15;3.05;;;17.50;99.90;;;;;;4994815;28;20058;-57
2022/06/16 02:50:39;;;;;;;5.32;2.85;;;17.50;99.90;;;;;;4993815;28;20109;-53
2022/06/16 02:53:35;;;;;;;6.90;3.10;;;17.40;99.90;;;;;;4994511;28;20030;-57
2022/06/16 02:56:09;;;;;;;2.85;2.55;;;17.40;99.90;;;;;;4995525;28;20030;-57
2022/06/16 02:58:38;;;;;;;3.28;2.97;;;17.40;99.90;;;;;;4996070;28;20033;-54
2022/06/16 03:01:06;;;;;;;9.18;2.92;;;17.40;99.90;;;;;;4995861;28;20026;-56
2022/06/16 03:03:34;;;;;;;5.60;2.58;;;17.40;99.90;;;;;;4995564;28;20030;-57
2022/06/16 03:06:00;;;;;;;3.58;2.67;;;17.40;99.90;;;;;;4995664;28;20105;-56
2022/06/16 03:08:27;;;;;;;5.00;2.88;;;17.40;99.90;;;;;;4994118;28;20121;-54
2022/06/16 03:10:54;;;;;;;5.90;2.90;;;17.40;99.90;;;;;;4995566;28;20097;-57
2022/06/16 03:13:28;;;;;;;3.28;2.70;;;17.50;99.90;;;;;;4995647;28;20105;-57
2022/06/16 03:15:56;;;;;;;5.32;2.83;;;17.40;99.90;;;;;;4995158;28;20122;-57
2022/06/16 03:18:22;;;;;;;3.10;2.72;;;17.40;99.90;;;;;;4995467;28;20022;-58
2022/06/16 03:20:48;;;;;;;5.22;2.80;;;17.50;99.90;;;;;;4994092;28;20429;-57
2022/06/16 03:23:14;;;;;;;4.32;2.60;;;17.60;99.90;;;;;;4995388;28;20028;-55
2022/06/16 03:25:41;;;;;;;4.10;2.20;;;17.70;99.90;;;;;;4994104;28;20034;-52
2022/06/16 03:28:08;;;;;;;4.53;2.40;;;17.80;99.90;;;;;;4995623;28;20033;-57
2022/06/16 03:30:35;;;;;;;3.55;2.33;;;17.80;99.90;;;;;;4995494;28;20022;-53
2022/06/16 03:33:02;;;;;;;5.43;3.28;;;18.00;99.90;;;;;;4995388;28;20058;-53
2022/06/16 03:35:29;;;;;;;8.60;2.90;;;18.10;99.90;;;;;;4993854;28;20037;-55
2022/06/16 03:37:54;;;;;;;4.18;2.55;;;18.20;99.90;;;;;;4993754;28;20023;-56
2022/06/16 03:40:22;;;;;;;4.93;2.78;;;18.20;99.90;;;;;;4995072;28;20031;-58
2022/06/16 03:42:47;;;;;;;6.78;3.05;;;18.30;99.90;;;;;;4994293;28;20026;-57
2022/06/16 03:45:15;;;;;;;3.78;2.60;;;18.30;99.90;;;;;;4993781;28;20093;-57
2022/06/16 03:47:40;;;;;;;4.80;3.00;;;18.30;99.90;;;;;;4993747;28;20030;-55
2022/06/16 03:50:07;;;;;;;3.08;2.50;;;18.40;99.90;;;;;;4993984;28;20026;-57
2022/06/16 03:52:33;;;;;;;4.13;2.97;;;18.40;99.90;;;;;;4994818;28;20022;-56
2022/06/16 03:54:59;;;;;;;5.90;2.90;;;18.30;99.90;;;;;;4993699;28;20117;-58
2022/06/16 03:57:24;;;;;;;6.85;2.90;;;18.30;99.90;;;;;;4993989;28;20030;-56
2022/06/16 03:59:50;;;;;;;5.20;2.88;;;18.30;99.90;;;;;;4994716;28;20030;-57
2022/06/16 04:02:15;;;;;;;5.18;2.63;;;18.30;99.90;;;;;;4994626;28;20065;-58
2022/06/16 04:04:42;;;;;;;5.60;2.92;;;18.40;99.90;;;;;;4994476;28;20035;-57
2022/06/16 04:07:09;;;;;;;4.93;3.00;;;18.40;99.90;;;;;;4993286;28;20084;-52
2022/06/16 04:09:34;;;;;;;3.72;2.67;;;18.50;99.90;;;;;;4993798;28;20027;-56
2022/06/16 04:12:00;;;;;;;4.72;2.97;;;18.50;99.90;;;;;;4995217;28;20044;-56
2022/06/16 04:14:25;;;;;;;7.57;3.00;;;18.50;99.90;;;;;;4994406;28;20020;-55
2022/06/16 04:16:56;;;;;;;3.97;2.83;;;18.60;99.90;;;;;;4994685;28;20026;-58
2022/06/16 04:19:22;;;;;;;5.10;2.55;;;18.80;99.90;;;;;;4993083;28;20057;-57
2022/06/16 04:21:49;;;;;;;4.07;3.15;;;18.90;99.90;;;;;;4993088;28;20027;-58
2022/06/16 04:24:16;;;;;;;5.13;2.33;;;19.10;99.90;;;;;;4994170;28;20539;-56
2022/06/16 04:26:42;;;;;;;5.90;2.55;;;19.40;99.90;;;;;;4992254;28;20022;-58
2022/06/16 04:29:11;;;;;;;6.88;2.85;;;19.60;99.90;;;;;;4994144;28;20018;-51
2022/06/16 04:31:38;;;;;;;3.88;2.28;;;19.70;99.90;;;;;;4993211;28;20058;-55
2022/06/16 04:34:04;;;;;;;3.60;2.60;;;19.90;99.90;;;;;;4994924;28;20023;-57
2022/06/16 04:36:30;;;;;;;6.45;2.50;;;20.00;99.90;;;;;;4994971;28;20026;-51
2022/06/16 04:38:56;;;;;;;4.75;2.40;;;20.00;99.90;;;;;;4993169;28;20026;-52
2022/06/16 04:41:22;;;;;;;3.20;2.38;;;20.10;99.90;;;;;;4994052;28;20117;-53
2022/06/16 04:43:48;;;;;;;3.88;2.00;;;20.20;99.90;;;;;;4992954;28;20096;-51
2022/06/16 04:46:14;;;;;;;4.68;2.33;;;20.40;99.90;;;;;;4993108;28;20062;-55
2022/06/16 04:48:40;;;;;;;6.50;2.40;;;20.40;99.90;;;;;;4992985;28;20026;-58
2022/06/16 04:51:05;;;;;;;7.45;2.65;;;20.50;99.90;;;;;;4993268;28;20029;-51
2022/06/16 04:53:32;;;;;;;7.70;2.67;;;20.60;99.90;;;;;;4994354;28;20034;-51
2022/06/16 04:56:00;;;;;;;3.78;2.50;;;20.70;99.90;;;;;;4993419;28;20362;-50
2022/06/16 04:58:26;;;;;;;8.45;2.60;;;20.70;99.90;;;;;;4992928;28;20023;-51
2022/06/16 05:00:53;;;;;;;4.70;2.20;;;20.70;99.90;;;;;;4994368;28;20411;-51
2022/06/16 05:03:21;;;;;;;5.38;1.98;;;20.70;99.90;;;;;;4992814;28;20030;-55
2022/06/16 05:05:48;;;;;;;8.48;3.20;;;20.70;99.90;;;;;;4993701;28;20061;-57
2022/06/16 05:08:16;;;;;;;8.02;2.75;;;20.90;99.90;;;;;;4992777;28;20023;-57
2022/06/16 05:10:42;;;;;;;4.75;2.47;;;20.80;99.90;;;;;;4993146;28;20101;-57
2022/06/16 05:13:08;;;;;;;7.40;2.10;;;20.60;99.90;;;;;;4993873;28;20105;-52
2022/06/16 05:15:35;;;;;;;6.03;2.47;;;20.40;99.90;;;;;;4994205;28;20093;-56
2022/06/16 05:18:01;;;;;;;3.63;2.42;;;20.60;99.90;;;;;;4993877;28;20034;-58
2022/06/16 05:20:26;;;;;;;6.53;2.35;;;20.80;99.90;;;;;;4992906;28;20385;-55
2022/06/16 05:22:52;;;;;;;7.68;2.90;;;20.80;99.90;;;;;;4993659;28;20065;-56
2022/06/16 05:25:18;;;;;;;4.28;2.25;;;20.90;99.90;;;;;;4993874;28;20029;-56
2022/06/16 05:27:43;;;;;;;5.78;2.67;;;21.00;99.90;;;;;;4994078;28;20069;-53
2022/06/16 05:30:09;;;;;;;7.28;2.15;;;21.20;99.90;;;;;;4992666;28;20022;-57
2022/06/16 05:32:35;;;;;;;5.38;2.20;;;21.30;99.90;;;;;;4992585;28;20033;-55
2022/06/16 05:35:01;;;;;;;6.20;2.20;;;21.40;99.90;;;;;;4992356;28;20034;-54
2022/06/16 05:37:27;;;;;;;6.45;2.17;;;21.50;99.90;;;;;;4993120;28;20030;-58
2022/06/16 05:39:53;;;;;;;6.50;2.13;;;21.40;99.90;;;;;;4996436;28;20030;-58
2022/06/16 05:42:19;;;;;;;2.83;1.65;;;21.70;99.90;;;;;;4996402;28;20030;-58
2022/06/16 05:44:45;;;;;;;4.80;2.33;;;21.70;99.90;;;;;;4996325;28;20109;-56
2022/06/16 05:47:11;;;;;;;5.43;2.17;;;22.00;99.90;;;;;;4996567;28;20173;-55
2022/06/16 05:49:38;;;;;;;3.08;1.42;;;22.20;99.90;;;;;;4996374;28;20069;-57
2022/06/16 05:52:13;;;;;;;3.08;2.30;;;22.60;99.90;;;;;;4996185;28;20393;-58
2022/06/16 05:54:41;;;;;;;3.55;1.90;;;23.40;99.90;;;;;;4996208;28;20101;-57
2022/06/16 05:57:08;;;;;;;4.03;2.35;;;23.80;99.90;;;;;;4997412;28;20034;-58
2022/06/16 05:59:35;;;;;;;3.20;2.10;;;24.10;99.90;;;;;;4996827;28;20026;-58
2022/06/16 06:02:01;;;;;;;4.93;2.35;;;24.20;99.90;;;;;;4997177;28;20168;-58
2022/06/16 06:04:27;;;;;;;6.95;2.15;;;23.20;99.90;;;;;;4997234;28;20026;-58
2022/06/16 06:06:53;;;;;;;3.70;2.05;;;23.00;99.90;;;;;;4997208;28;20034;-58
2022/06/16 06:17:35;;;;;;;4.60;2.53;;;22.80;99.90;;;;;;4997605;28;20044;-53
2022/06/16 06:20:01;;;;;;;3.58;2.22;;;22.70;99.90;;;;;;4997030;28;20030;-52
2022/06/16 06:22:27;;;;;;;3.05;2.05;;;22.60;99.90;;;;;;4996540;28;20031;-58
2022/06/16 06:24:56;;;;;;;5.55;2.83;;;23.20;99.90;;;;;;4995916;28;20022;-56
2022/06/16 06:27:35;;;;;;;5.78;1.90;;;23.60;99.90;;;;;;4997105;28;20014;-56
2022/06/16 06:30:05;;;;;;;3.30;2.33;;;24.10;99.90;;;;;;4995559;28;20026;-56
2022/06/16 06:32:31;;;;;;;2.38;2.17;;;24.80;99.90;;;;;;4996726;28;20057;-58
2022/06/16 06:34:56;;;;;;;5.20;2.20;;;25.70;99.90;;;;;;4995649;28;20027;-58
2022/06/16 06:37:24;;;;;;;3.38;2.70;;;26.20;99.90;;;;;;4995421;28;20037;-59
2022/06/16 06:39:51;;;;;;;5.53;2.22;;;26.30;99.90;;;;;;4996724;28;20084;-57
2022/06/16 06:42:16;;;;;;;11.77;2.45;;;26.10;99.90;;;;;;4996450;28;20471;-59
2022/06/16 06:44:43;;;;;;;4.50;2.53;;;25.90;99.90;;;;;;4995227;28;20114;-56
2022/06/16 06:47:15;;;;;;;3.38;2.35;;;25.30;99.90;;;;;;4995222;28;20089;-58
2022/06/16 06:49:40;;;;;;;5.55;2.30;;;24.90;99.90;;;;;;4995598;28;20030;-59
2022/06/16 06:52:06;;;;;;;2.40;1.88;;;24.70;99.90;;;;;;4995217;28;20030;-58
2022/06/16 06:54:32;;;;;;;5.85;2.15;;;25.80;99.90;;;;;;4995415;28;20026;-59
2022/06/16 06:56:59;;;;;;;3.55;2.00;;;27.10;99.90;;;;;;4995178;28;20023;-59
2022/06/16 06:59:24;;;;;;;6.28;2.70;;;27.90;97.10;;;;;;4995613;28;20060;-59
2022/06/16 07:01:51;;;;;;;6.57;2.58;;;28.60;94.60;;;;;;4996322;28;20046;-57
2022/06/16 07:04:18;;;;;;;2.50;2.20;;;28.60;93.90;;;;;;4995425;28;20057;-59
2022/06/16 07:06:45;;;;;;;3.53;2.38;;;28.70;94.20;;;;;;4995199;28;20113;-59
2022/06/16 07:09:12;;;;;;;5.00;1.90;;;29.70;92.30;;;;;;4994897;28;20086;-60
2022/06/16 07:11:40;;;;;;;5.80;2.42;;;29.80;92.10;;;;;;4996323;28;20031;-59
2022/06/16 07:14:06;;;;;;;5.03;2.33;;;29.80;90.50;;;;;;4995457;28;20026;-59
2022/06/16 07:16:32;;;;;;;5.72;2.25;;;30.20;90.80;;;;;;4995788;28;20060;-59
2022/06/16 07:18:58;;;;;;;3.47;2.38;;;30.50;90.50;;;;;;4994692;28;20031;-57
2022/06/16 07:21:24;;;;;;;8.10;2.85;;;29.70;85.70;;;;;;4995856;28;20018;-59
2022/06/16 07:23:51;;;;;;;4.18;2.40;;;29.80;88.10;;;;;;4995120;28;20029;-60
2022/06/16 07:26:17;;;;;;;4.15;2.03;;;31.10;87.20;;;;;;4995749;28;20019;-59
2022/06/16 07:28:43;;;;;;;3.85;1.90;;;32.10;81.50;;;;;;4995175;28;20098;-59
2022/06/16 07:31:09;;;;;;;4.05;1.80;;;32.90;78.80;;;;;;4994530;28;20516;-59
2022/06/16 07:33:34;;;;;;;4.25;2.15;;;33.50;77.30;;;;;;4995513;28;20026;-58
2022/06/16 07:36:00;;;;;;;4.50;2.00;;;33.80;73.70;;;;;;4994538;28;20062;-59
2022/06/16 07:38:27;;;;;;;6.43;2.30;;;34.10;72.00;;;;;;4995202;28;20028;-59
2022/06/16 07:41:31;;;;;;;4.55;1.80;;;34.30;72.10;;;;;;4995426;28;20022;-56
2022/06/16 07:43:39;;;;;;;4.85;2.22;;;34.80;70.90;;;;;;4995212;28;20101;-59
2022/06/16 07:46:05;;;;;;;3.50;1.92;;;34.90;66.60;;;;;;4995645;28;20093;-58
2022/06/16 07:48:31;;;;;;;3.35;2.45;;;35.50;65.30;;;;;;4994422;28;20073;-57
2022/06/16 07:50:56;;;;;;;6.40;2.80;;;35.20;62.90;;;;;;4994106;28;20026;-54
2022/06/16 07:53:22;;;;;;;5.20;2.30;;;34.80;64.00;;;;;;4995521;28;20030;-57
2022/06/16 07:55:47;;;;;;;4.35;2.00;;;35.10;63.30;;;;;;4995151;28;20113;-57
2022/06/16 07:58:13;;;;;;;3.83;2.28;;;35.10;64.90;;;;;;4994035;28;20026;-58
2022/06/16 08:00:39;;;;;;;3.13;2.00;;;35.60;63.40;;;;;;4994595;28;20029;-60
2022/06/16 08:03:05;;;;;;;5.10;2.00;;;36.60;60.40;;;;;;4993867;28;20026;-60
2022/06/16 08:05:31;;;;;;;4.75;2.10;;;37.10;59.40;;;;;;4995406;28;20029;-59
2022/06/16 08:07:57;;;;;;;2.17;1.95;;;37.30;58.30;;;;;;4993781;28;20033;-60
2022/06/16 08:10:26;;;;;;;2.55;1.90;;;37.40;56.50;;;;;;4994439;28;20476;-59
2022/06/16 08:12:52;;;;;;;4.97;2.28;;;37.30;55.60;;;;;;4994378;28;20113;-59
2022/06/16 08:15:17;;;;;;;3.13;2.25;;;37.00;56.20;;;;;;4995124;28;20429;-60
2022/06/16 08:17:47;;;;;;;2.78;1.98;;;37.40;55.80;;;;;;4994655;28;20026;-59
2022/06/16 08:20:13;;;;;;;4.70;2.45;;;38.00;56.00;;;;;;4993616;28;20033;-60
2022/06/16 08:22:39;;;;;;;3.45;2.13;;;38.20;55.20;;;;;;4993305;28;20034;-59
2022/06/16 08:25:07;;;;;;;7.15;1.90;;;38.60;54.20;;;;;;4993450;28;20031;-58
2022/06/16 08:27:36;;;;;;;5.05;2.15;;;38.90;53.30;;;;;;4994550;28;20101;-60
2022/06/16 08:30:08;;;;;;;4.97;2.60;;;38.80;52.00;;;;;;4993801;28;20025;-60
2022/06/16 08:32:34;;;;;;;9.77;2.20;;;36.60;54.70;;;;;;4994585;28;20026;-61
2022/06/16 08:35:00;;;;;;;3.22;2.00;;;36.60;55.60;;;;;;4993203;28;20101;-60
2022/06/16 08:37:26;;;;;;;5.38;2.35;;;37.40;53.20;;;;;;4993287;28;20053;-59
2022/06/16 08:39:52;;;;;;;7.65;1.80;;;38.40;53.20;;;;;;4993208;28;20481;-60
2022/06/16 08:42:38;;;;;;;9.93;2.28;;;38.90;51.50;;;;;;4994274;28;20034;-59
2022/06/16 08:45:07;;;;;;;4.75;2.28;;;38.30;51.70;;;;;;4994725;28;20069;-59
2022/06/16 08:48:10;;;;;;;5.80;2.00;;;36.30;52.20;;;;;;4994359;28;20061;-59
2022/06/16 08:57:42;;;;;;;6.25;1.80;;;36.30;54.70;;;;;;4994394;28;20500;-60
2022/06/16 09:00:13;;;;;;;5.18;2.20;;;36.30;54.10;;;;;;4994240;28;20362;-57
2022/06/16 09:02:48;;;;;;;6.68;2.30;;;37.00;52.40;;;;;;4994332;28;20022;-59
2022/06/16 09:05:28;;;;;;;4.50;2.60;;;36.30;53.80;;;;;;4993738;28;20080;-58
2022/06/16 09:08:24;;;;;;;4.95;1.83;;;36.10;54.90;;;;;;4994388;28;20412;-56
2022/06/16 09:11:01;;;;;;;3.10;2.08;;;37.30;53.60;;;;;;4993077;28;20053;-58
2022/06/16 09:13:43;;;;;;;4.25;2.20;;;36.90;52.40;;;;;;4993658;28;20473;-57
2022/06/16 09:16:08;;;;;;;4.70;2.10;;;37.10;53.60;;;;;;4993384;28;20030;-56
2022/06/16 09:18:58;;;;;;;3.03;2.03;;;38.40;52.00;;;;;;4994207;28;20022;-58
2022/06/16 09:21:45;;;;;;;5.00;2.30;;;37.60;52.90;;;;;;4993952;28;20034;-62
2022/06/16 09:24:33;;;;;;;3.60;2.08;;;38.10;50.30;;;;;;4993869;28;20023;-58
2022/06/16 09:27:01;;;;;;;2.63;1.90;;;36.20;52.80;;;;;;4994250;28;20023;-59
2022/06/16 09:29:50;;;;;;;4.32;2.00;;;36.50;54.00;;;;;;4994124;28;20101;-60
2022/06/16 09:32:48;;;;;;;4.32;2.10;;;37.90;53.00;;;;;;4992599;28;20023;-59
2022/06/16 09:35:40;;;;;;;2.58;1.90;;;39.60;50.30;;;;;;4994533;28;20049;-60
2022/06/16 09:38:28;;;;;;;6.13;2.78;;;40.30;50.00;;;;;;4994076;28;20018;-58
2022/06/16 09:44:02;;;;;;;5.05;2.53;;;40.10;49.30;;;;;;4993918;28;20393;-56
2022/06/16 09:46:36;;;;;;;4.65;2.63;;;40.70;49.60;;;;;;4992481;28;20162;-53
2022/06/16 09:49:22;;;;;;;6.63;2.58;;;38.30;49.00;;;;;;4992980;28;20069;-57
2022/06/16 09:51:54;;;;;;;4.30;2.40;;;36.00;52.20;;;;;;4992564;28;20126;-56
2022/06/16 09:54:40;;;;;;;3.90;2.90;;;35.40;53.60;;;;;;4992422;28;20060;-57
2022/06/16 09:57:12;;;;;;;4.55;2.38;;;34.80;53.50;;;;;;4993666;28;20023;-59
2022/06/16 09:59:59;;;;;;;3.25;2.00;;;35.80;54.40;;;;;;4993555;28;20037;-60
2022/06/16 10:02:35;;;;;;;5.80;2.80;;;38.00;52.60;;;;;;4993480;28;20037;-58
2022/06/16 10:05:01;;;;;;;5.18;2.80;;;38.50;49.80;;;;;;4993868;28;20433;-56
2022/06/16 10:08:02;;;;;;;4.22;2.60;;;37.30;51.10;;;;;;4992852;28;20065;-58
2022/06/16 10:10:37;;;;;;;5.13;2.50;;;37.00;51.90;;;;;;4981229;28;20092;-60
2022/06/16 10:13:26;;;;;;;4.63;2.28;;;38.60;51.20;;;;;;4993425;28;20022;-55
2022/06/16 10:16:02;;;;;;;4.75;1.95;;;39.80;49.90;;;;;;4993765;28;20042;-55
2022/06/16 10:18:28;;;;;;;5.88;3.60;;;39.80;49.00;;;;;;4992453;28;20026;-54
2022/06/16 10:20:54;;;;;;;6.43;2.53;;;38.50;49.80;;;;;;4992265;28;20121;-56
2022/06/16 10:23:30;;;;;;;5.15;2.20;;;37.60;49.90;;;;;;4992044;28;20030;-59
2022/06/16 10:26:03;;;;;;;3.50;2.50;;;37.40;51.50;;;;;;4996437;28;20018;-60
2022/06/16 10:28:30;;;;;;;3.90;2.60;;;38.30;50.70;;;;;;4995703;28;20026;-57
2022/06/16 10:31:02;;;;;;;4.13;2.40;;;38.70;50.80;;;;;;4995611;28;20552;-56
2022/06/16 10:33:33;;;;;;;7.57;2.30;;;38.80;50.00;;;;;;4996000;28;20030;-56
2022/06/16 10:36:14;;;;;;;7.13;2.35;;;38.50;49.80;;;;;;4995406;28;20026;-58
2022/06/16 10:38:43;;;;;;;6.32;2.55;;;37.40;51.80;;;;;;4996739;28;20101;-56
2022/06/16 10:41:31;;;;;;;11.93;2.40;;;37.30;51.50;;;;;;4996605;28;20496;-53
2022/06/16 10:44:03;;;;;;;3.28;2.20;;;37.00;52.60;;;;;;4996641;28;20061;-53
2022/06/16 10:46:34;;;;;;;4.28;2.35;;;36.60;53.40;;;;;;4996543;28;20022;-58
2022/06/16 10:49:06;;;;;;;10.70;2.20;;;36.20;52.40;;;;;;4996537;28;20088;-55
2022/06/16 10:51:35;;;;;;;3.13;2.45;;;35.80;53.10;;;;;;4996463;28;20061;-59
2022/06/16 10:54:19;;;;;;;6.65;2.60;;;35.70;52.50;;;;;;4995650;28;20034;-58
2022/06/16 10:56:45;;;;;;;4.68;2.45;;;34.70;52.80;;;;;;4996026;28;20031;-56
2022/06/16 10:59:24;;;;;;;7.72;2.50;;;34.00;54.00;;;;;;4996381;28;20027;-55
2022/06/16 11:02:09;;;;;;;3.10;2.22;;;33.90;54.80;;;;;;4996404;28;20034;-59
2022/06/16 11:04:42;;;;;;;2.72;2.15;;;34.00;55.60;;;;;;4996120;28;20031;-60
2022/06/16 11:07:11;;;;;;;4.25;2.50;;;33.80;55.60;;;;;;4994918;28;20018;-58
2022/06/16 11:09:37;;;;;;;3.30;2.50;;;33.20;55.20;;;;;;4994895;28;20033;-59
2022/06/16 11:12:04;;;;;;;1.70;1.60;;;33.10;55.20;;;;;;4995361;28;20030;-58
2022/06/16 11:14:38;;;;;;;2.88;2.20;;;32.90;56.60;;;;;;4994695;28;20026;-58
2022/06/16 11:17:41;;;;;;;3.22;2.20;;;32.60;56.60;;;;;;4994851;28;20074;-58
2022/06/16 11:20:10;;;;;;;4.78;2.00;;;31.90;57.50;;;;;;4958340;28;20027;-59
2022/06/16 11:22:42;;;;;;;3.78;1.98;;;31.50;58.70;;;;;;4988109;28;20381;-58
2022/06/16 11:25:30;;;;;;;4.40;2.13;;;31.50;58.90;;;;;;4995739;28;20023;-60
2022/06/16 11:28:20;;;;;;;5.72;2.20;;;31.50;56.70;;;;;;4996152;28;20029;-56
2022/06/16 11:30:47;;;;;;;3.88;2.20;;;31.60;57.20;;;;;;4994845;28;20473;-58
2022/06/16 11:37:13;;;;;;;2.17;1.80;;;29.60;60.80;;;;;;4995700;28;20037;-56
2022/06/16 11:40:06;;;;;;;3.45;2.05;;;29.10;61.10;;;;;;4995269;28;20022;-59
2022/06/16 11:42:47;;;;;;;4.55;2.50;;;29.40;58.70;;;;;;4995667;28;20080;-58
2022/06/16 11:45:19;;;;;;;3.45;2.05;;;29.40;59.00;;;;;;4995440;28;20023;-57
2022/06/16 11:48:00;;;;;;;3.20;2.00;;;29.00;60.10;;;;;;4994975;28;20023;-56
2022/06/16 11:50:50;;;;;;;5.28;2.00;;;28.50;58.50;;;;;;4994127;28;20082;-55
2022/06/16 11:53:43;;;;;;;2.03;1.58;;;28.50;59.00;;;;;;4994891;28;20038;-57
2022/06/16 11:56:39;;;;;;;3.45;1.48;;;28.50;57.90;;;;;;4994015;28;20033;-58
2022/06/16 11:59:28;;;;;;;3.28;1.50;;;28.90;55.90;;;;;;4994790;28;20030;-56
2022/06/16 12:02:04;;;;;;;3.45;1.73;;;29.30;53.30;;;;;;4993897;28;20477;-56
2022/06/16 12:04:54;;;;;;;2.20;1.95;;;29.40;57.30;;;;;;4995032;28;20023;-54
2022/06/16 12:08:01;;;;;;;3.13;2.10;;;28.70;58.40;;;;;;4994440;28;20022;-57
2022/06/16 12:10:48;;;;;;;3.00;1.85;;;28.30;59.80;;;;;;4994658;28;20085;-57
2022/06/16 12:13:40;;;;;;;4.25;1.85;;;27.80;63.30;;;;;;4993641;28;20102;-59
2022/06/16 12:16:16;;;;;;;2.92;1.63;;;27.90;60.30;;;;;;4994691;28;20027;-59
2022/06/16 12:19:07;;;;;;;5.60;2.40;;;27.80;57.40;;;;;;4994728;28;20101;-59
2022/06/16 12:21:59;;;;;;;4.05;1.60;;;27.60;62.90;;;;;;4995101;28;20041;-60
2022/06/16 12:24:43;;;;;;;3.83;2.22;;;27.70;62.50;;;;;;4993305;28;20027;-59
2022/06/16 12:27:14;;;;;;;1.73;1.63;;;28.00;62.90;;;;;;4994683;28;20093;-58
2022/06/16 12:29:50;;;;;;;4.53;1.77;;;28.20;59.30;;;;;;4994923;28;20036;-58
2022/06/16 12:32:44;;;;;;;3.10;1.67;;;28.30;57.20;;;;;;4993342;28;20025;-58
2022/06/16 12:35:30;;;;;;;3.20;1.58;;;28.50;58.80;;;;;;4994184;28;20029;-58
2022/06/16 12:38:16;;;;;;;2.30;1.60;;;28.40;55.10;;;;;;4993873;28;20029;-59
2022/06/16 12:41:00;;;;;;;1.70;1.60;;;28.10;56.20;;;;;;4990715;28;20096;-60
2022/06/16 12:43:34;;;;;;;5.20;1.50;;;28.30;56.90;;;;;;4993165;28;20370;-59
2022/06/16 12:46:04;;;;;;;3.15;1.45;;;28.10;54.20;;;;;;4994031;28;20113;-60
2022/06/16 12:48:48;;;;;;;2.25;1.38;;;28.10;54.60;;;;;;4994042;28;20030;-56
2022/06/16 12:51:18;;;;;;;2.00;1.77;;;28.30;54.30;;;;;;4994103;28;20029;-59
2022/06/16 12:53:57;;;;;;;1.63;1.52;;;28.40;56.00;;;;;;4992993;28;20043;-58
2022/06/16 12:56:32;;;;;;;2.50;1.58;;;27.80;56.40;;;;;;4992938;28;20124;-59
2022/06/16 12:59:05;;;;;;;4.57;1.90;;;27.70;57.80;;;;;;4992905;28;20455;-57
2022/06/16 13:01:36;;;;;;;3.45;1.38;;;27.70;57.50;;;;;;4994519;28;20030;-56
2022/06/16 13:04:16;;;;;;;2.85;1.50;;;27.80;57.70;;;;;;4994429;28;20085;-57
2022/06/16 13:06:45;;;;;;;2.22;1.63;;;27.90;56.70;;;;;;4994144;28;20038;-58
2022/06/16 13:09:13;;;;;;;3.13;1.40;;;28.00;55.40;;;;;;4992848;28;20031;-57
2022/06/16 13:11:56;;;;;;;1.80;1.25;;;28.10;55.00;;;;;;4992954;28;20030;-57
2022/06/16 13:14:34;;;;;;;2.80;1.38;;;28.00;57.40;;;;;;4994033;28;20105;-55
2022/06/16 13:17:04;;;;;;;1.73;1.50;;;28.10;55.00;;;;;;4992832;28;20023;-60
2022/06/16 13:20:01;;;;;;;3.08;1.75;;;28.00;55.70;;;;;;4994098;28;20058;-56
2022/06/16 13:22:42;;;;;;;3.40;1.40;;;28.10;56.60;;;;;;4992853;28;20038;-58
2022/06/16 13:25:10;;;;;;;;;;;28.10;55.10;;;;;;4994260;28;20022;-58
2022/06/16 13:27:38;;;;;;;3.15;1.48;;;28.10;54.20;;;;;;4993954;28;19906;-59
2022/06/16 13:30:09;;;;;;;3.00;1.30;;;28.20;55.40;;;;;;4993905;28;20488;-56
2022/06/16 13:32:40;;;;;;;1.33;1.23;;;28.00;56.90;;;;;;4994320;28;20018;-58
2022/06/16 13:35:12;;;;;;;;;;;28.00;54.60;;;;;;4993005;28;20026;-60
2022/06/16 13:37:50;;;;;;;2.92;1.40;;;28.00;56.80;;;;;;4994363;28;19905;-62
2022/06/16 13:40:26;;;;;;;3.13;1.40;;;28.10;56.40;;;;;;4994081;28;20026;-62
2022/06/16 13:42:51;;;;;;;2.83;1.23;;;28.00;53.40;;;;;;4992656;28;20461;-62